createdAt,value
2024-01-31T00:01:23.065Z,101225.06
2024-01-31T00:03:50.079Z,101237.13
2024-01-31T00:06:16.983Z,101233.22
2024-01-31T00:08:43.827Z,101223.81
2024-01-31T00:11:10.849Z,101220.28
2024-01-31T00:13:37.980Z,101223.50
2024-01-31T00:16:05.719Z,101222.81
2024-01-31T00:18:32.691Z,101221.84
2024-01-31T00:20:59.649Z,101218.94
2024-01-31T00:23:26.856Z,101215.31
2024-01-31T00:25:53.818Z,101212.50
2024-01-31T00:28:20.802Z,101205.50
2024-01-31T00:30:47.651Z,101210.63
2024-01-31T00:33:14.400Z,101210.72
2024-01-31T00:35:41.427Z,101212.97
2024-01-31T00:38:08.293Z,101208.31
2024-01-31T00:40:35.293Z,101206.63
2024-01-31T00:43:02.351Z,101208.38
2024-01-31T00:45:29.869Z,101211.59
2024-01-31T00:47:56.809Z,101207.28
2024-01-31T00:50:23.681Z,101205.72
2024-01-31T00:52:50.657Z,101200.94
2024-01-31T00:55:17.684Z,101210.56
2024-01-31T00:57:45.667Z,101209.78
2024-01-31T01:00:13.192Z,101198.28
2024-01-31T01:02:43.054Z,101211.91
2024-01-31T01:05:10.957Z,101205.81
2024-01-31T01:07:41.872Z,101200.53
2024-01-31T01:10:13.968Z,101203.13
2024-01-31T01:12:40.997Z,101199.66
2024-01-31T01:15:15.313Z,101203.91
2024-01-31T01:17:43.501Z,101195.19
2024-01-31T01:20:10.486Z,101194.19
2024-01-31T01:22:37.488Z,101182.91
2024-01-31T01:25:04.806Z,101183.84
2024-01-31T01:27:31.702Z,101177.78
2024-01-31T01:29:58.705Z,101175.91
2024-01-31T01:32:25.795Z,101164.31
2024-01-31T01:34:52.715Z,101161.81
2024-01-31T01:37:19.572Z,101164.53
2024-01-31T01:39:47.006Z,101162.69
2024-01-31T01:42:13.887Z,101163.50
2024-01-31T01:44:46.123Z,101163.78
2024-01-31T01:47:15.313Z,101163.72
2024-01-31T01:49:42.783Z,101162.81
2024-01-31T01:52:11.220Z,101160.53
2024-01-31T01:54:39.130Z,101156.38
2024-01-31T01:57:07.954Z,101158.16
2024-01-31T01:59:35.848Z,101149.13
2024-01-31T02:02:03.260Z,101151.00
2024-01-31T02:04:31.128Z,101148.44
2024-01-31T02:06:58.877Z,101144.03
2024-01-31T02:09:27.511Z,101140.72
2024-01-31T02:11:54.727Z,101134.72
2024-01-31T02:14:21.641Z,101134.84
2024-01-31T02:16:48.498Z,101135.91
2024-01-31T02:19:15.711Z,101146.47
2024-01-31T02:21:45.178Z,101139.69
2024-01-31T02:24:12.477Z,101137.72
2024-01-31T02:26:39.333Z,101132.72
2024-01-31T02:29:06.224Z,101127.22
2024-01-31T02:31:33.162Z,101120.91
2024-01-31T02:34:00.353Z,101124.47
2024-01-31T02:36:30.239Z,101136.41
2024-01-31T02:38:57.111Z,101130.63
2024-01-31T02:41:24.277Z,101128.78
2024-01-31T02:43:51.495Z,101133.25
2024-01-31T02:46:18.418Z,101122.94
2024-01-31T02:48:47.489Z,101131.66
2024-01-31T02:51:14.768Z,101126.59
2024-01-31T02:53:41.885Z,101125.19
2024-01-31T02:56:10.136Z,101117.75
2024-01-31T02:58:37.583Z,101124.44
2024-01-31T03:01:08.382Z,101121.19
2024-01-31T03:03:35.354Z,101117.03
2024-01-31T03:06:02.303Z,101119.59
2024-01-31T03:08:29.537Z,101117.63
2024-01-31T03:10:56.461Z,101118.47
2024-01-31T03:13:23.431Z,101117.72
2024-01-31T03:15:50.377Z,101114.13
2024-01-31T03:18:17.391Z,101115.16
2024-01-31T03:20:44.687Z,101111.03
2024-01-31T03:23:11.577Z,101114.09
2024-01-31T03:25:38.807Z,101116.84
2024-01-31T03:28:05.862Z,101114.94
2024-01-31T03:30:32.774Z,101116.78
2024-01-31T03:33:01.850Z,101110.63
2024-01-31T03:35:28.809Z,101118.34
2024-01-31T03:37:55.672Z,101116.50
2024-01-31T03:40:22.675Z,101114.59
2024-01-31T03:42:49.503Z,101118.97
2024-01-31T03:45:16.401Z,101115.44
2024-01-31T03:47:43.172Z,101113.72
2024-01-31T03:50:10.744Z,101113.69
2024-01-31T03:52:38.095Z,101111.88
2024-01-31T03:55:05.779Z,101107.00
2024-01-31T03:57:32.701Z,101112.00
2024-01-31T04:00:06.618Z,101105.09
2024-01-31T04:02:34.953Z,101094.50
2024-01-31T04:05:02.530Z,101103.44
2024-01-31T04:07:30.208Z,101093.69
2024-01-31T04:09:57.011Z,101099.63
2024-01-31T04:12:26.579Z,101084.91
2024-01-31T04:14:53.633Z,101083.97
2024-01-31T04:17:21.194Z,101082.88
2024-01-31T04:19:50.683Z,101079.41
2024-01-31T04:22:18.491Z,101074.28
2024-01-31T04:24:46.726Z,101073.19
2024-01-31T04:27:13.640Z,101077.41
2024-01-31T04:29:41.252Z,101080.06
2024-01-31T04:32:08.668Z,101078.19
2024-01-31T04:34:40.034Z,101075.59
2024-01-31T04:37:07.383Z,101077.50
2024-01-31T04:39:36.350Z,101079.19
2024-01-31T04:42:03.335Z,101070.47
2024-01-31T04:44:30.357Z,101077.59
2024-01-31T04:46:59.410Z,101070.78
2024-01-31T04:49:26.945Z,101068.22
2024-01-31T04:51:55.143Z,101064.84
2024-01-31T04:54:22.214Z,101066.81
2024-01-31T04:56:49.020Z,101070.25
2024-01-31T04:59:16.203Z,101066.94
2024-01-31T05:01:44.697Z,101071.53
2024-01-31T05:04:12.063Z,101061.31
2024-01-31T05:06:39.023Z,101065.84
2024-01-31T05:09:05.817Z,101064.16
2024-01-31T05:11:32.829Z,101066.72
2024-01-31T05:14:00.071Z,101059.84
2024-01-31T05:16:27.459Z,101058.97
2024-01-31T05:18:55.440Z,101061.88
2024-01-31T05:21:23.356Z,101052.16
2024-01-31T05:23:50.420Z,101049.31
2024-01-31T05:26:17.275Z,101052.00
2024-01-31T05:28:44.768Z,101045.88
2024-01-31T05:31:11.812Z,101045.25
2024-01-31T05:33:38.918Z,101042.56
2024-01-31T05:36:06.258Z,101038.28
2024-01-31T05:38:33.137Z,101038.28
2024-01-31T05:40:59.922Z,101036.56
2024-01-31T05:43:27.062Z,101039.09
2024-01-31T05:45:53.983Z,101032.84
2024-01-31T05:48:21.202Z,101029.38
2024-01-31T05:50:48.149Z,101035.56
2024-01-31T05:53:14.984Z,101037.06
2024-01-31T05:55:42.026Z,101037.94
2024-01-31T05:58:09.135Z,101038.13
2024-01-31T06:00:36.062Z,101041.63
2024-01-31T06:03:03.020Z,101039.09
2024-01-31T06:05:30.060Z,101039.88
2024-01-31T06:07:56.942Z,101040.72
2024-01-31T06:10:23.949Z,101033.75
2024-01-31T06:12:51.039Z,101037.19
2024-01-31T06:15:18.552Z,101043.34
2024-01-31T06:17:48.705Z,101043.44
2024-01-31T06:20:17.650Z,101041.75
2024-01-31T06:22:44.794Z,101051.22
2024-01-31T06:25:11.793Z,101054.84
2024-01-31T06:27:38.904Z,101055.91
2024-01-31T06:30:06.414Z,101054.34
2024-01-31T06:32:35.967Z,101051.16
2024-01-31T06:35:04.321Z,101055.97
2024-01-31T06:37:31.512Z,101056.00
2024-01-31T06:39:58.475Z,101058.13
2024-01-31T06:42:25.495Z,101039.13
2024-01-31T06:44:52.542Z,101047.97
2024-01-31T06:47:19.382Z,101046.38
2024-01-31T06:49:46.288Z,101044.84
2024-01-31T06:52:13.308Z,101038.06
2024-01-31T06:54:40.308Z,101038.09
2024-01-31T06:57:07.240Z,101033.88
2024-01-31T06:59:34.035Z,101030.47
2024-01-31T07:02:01.026Z,101042.78
2024-01-31T07:04:29.181Z,101034.31
2024-01-31T07:06:56.256Z,101027.47
2024-01-31T07:09:23.140Z,101021.44
2024-01-31T07:11:50.106Z,101027.69
2024-01-31T07:14:17.420Z,101025.84
2024-01-31T07:16:44.345Z,101018.00
2024-01-31T07:19:11.600Z,101014.66
2024-01-31T07:21:38.810Z,101012.94
2024-01-31T07:24:11.550Z,101006.91
2024-01-31T07:26:48.462Z,101005.16
2024-01-31T07:29:16.149Z,101007.03
2024-01-31T07:31:44.735Z,101004.38
2024-01-31T07:34:12.857Z,101007.94
2024-01-31T07:36:40.605Z,101004.44
2024-01-31T07:39:07.820Z,101010.59
2024-01-31T07:41:38.503Z,101010.66
2024-01-31T07:44:05.891Z,101015.94
2024-01-31T07:46:33.065Z,101020.31
2024-01-31T07:49:00.467Z,101015.94
2024-01-31T07:51:28.543Z,101022.91
2024-01-31T07:53:56.008Z,101024.59
2024-01-31T07:56:24.805Z,101016.69
2024-01-31T07:58:51.859Z,101015.72
2024-01-31T08:01:19.311Z,101012.25
2024-01-31T08:03:46.962Z,101010.47
2024-01-31T08:06:13.923Z,101003.50
2024-01-31T08:08:41.437Z,101004.41
2024-01-31T08:11:08.341Z,100998.25
2024-01-31T08:13:35.570Z,100996.44
2024-01-31T08:16:03.179Z,100994.72
2024-01-31T08:18:30.131Z,100998.22
2024-01-31T08:20:57.661Z,100992.97
2024-01-31T08:23:24.773Z,100996.44
2024-01-31T08:25:51.856Z,100996.41
2024-01-31T08:28:18.974Z,100998.16
2024-01-31T08:30:46.040Z,100999.91
2024-01-31T08:33:13.115Z,100993.75
2024-01-31T08:35:40.162Z,100992.81
2024-01-31T08:38:07.020Z,100990.22
2024-01-31T08:40:33.994Z,100992.78
2024-01-31T08:43:01.258Z,100985.78
2024-01-31T08:45:28.275Z,100983.09
2024-01-31T08:47:55.200Z,100976.69
2024-01-31T08:50:22.219Z,100968.69
2024-01-31T08:52:50.263Z,100969.75
2024-01-31T08:55:17.958Z,100963.66
2024-01-31T08:57:44.975Z,100956.34
2024-01-31T09:00:12.521Z,100948.03
2024-01-31T09:02:39.511Z,100935.09
2024-01-31T09:05:06.940Z,100935.69
2024-01-31T09:07:33.915Z,100931.38
2024-01-31T09:10:00.848Z,100921.13
2024-01-31T09:12:27.903Z,100919.88
2024-01-31T09:14:54.832Z,100919.56
2024-01-31T09:17:21.716Z,100913.22
2024-01-31T09:19:48.588Z,100899.44
2024-01-31T09:22:15.611Z,100903.25
2024-01-31T09:24:42.718Z,100892.34
2024-01-31T09:27:09.564Z,100892.03
2024-01-31T09:29:36.481Z,100896.97
2024-01-31T09:32:04.484Z,100887.50
2024-01-31T09:34:32.076Z,100889.84
2024-01-31T09:36:59.245Z,100887.25
2024-01-31T09:39:26.751Z,100884.41
2024-01-31T09:41:54.547Z,100881.34
2024-01-31T09:44:22.651Z,100875.75
2024-01-31T09:46:53.071Z,100876.25
2024-01-31T09:49:20.101Z,100868.25
2024-01-31T09:51:47.064Z,100865.97
2024-01-31T09:54:15.214Z,100854.00
2024-01-31T09:56:42.672Z,100861.44
2024-01-31T09:59:10.231Z,100856.16
2024-01-31T10:01:38.956Z,100853.59
2024-01-31T10:04:06.088Z,100853.41
2024-01-31T10:06:33.640Z,100849.53
2024-01-31T10:09:01.176Z,100845.41
2024-01-31T10:11:30.356Z,100840.97
2024-01-31T10:13:57.650Z,100837.28
2024-01-31T10:16:25.932Z,100833.72
2024-01-31T10:18:53.183Z,100827.41
2024-01-31T10:21:21.098Z,100844.31
2024-01-31T10:24:01.337Z,100834.41
2024-01-31T10:26:30.302Z,100837.88
2024-01-31T10:29:08.851Z,100837.09
2024-01-31T10:31:39.498Z,100832.00
2024-01-31T10:34:09.141Z,100830.75
2024-01-31T10:39:11.175Z,100829.53
2024-01-31T10:41:45.263Z,100819.78
2024-01-31T10:44:16.082Z,100823.09
2024-01-31T10:46:49.492Z,100812.34
2024-01-31T10:49:20.133Z,100813.22
2024-01-31T10:51:54.703Z,100814.34
2024-01-31T10:54:26.042Z,100808.59
2024-01-31T10:56:53.778Z,100805.13
2024-01-31T10:59:20.853Z,100797.53
2024-01-31T11:01:53.320Z,100786.91
2024-01-31T11:04:22.499Z,100789.28
2024-01-31T11:06:53.317Z,100774.84
2024-01-31T11:09:24.571Z,100773.50
2024-01-31T11:12:12.496Z,100766.31
2024-01-31T11:14:43.149Z,100758.75
2024-01-31T11:17:19.286Z,100768.78
2024-01-31T11:19:52.703Z,100767.59
2024-01-31T11:22:21.181Z,100764.66
2024-01-31T11:24:53.388Z,100753.31
2024-01-31T11:27:20.795Z,100750.63
2024-01-31T11:29:52.533Z,100739.44
2024-01-31T11:32:20.615Z,100737.38
2024-01-31T11:34:59.275Z,100734.38
2024-01-31T11:37:26.701Z,100730.78
2024-01-31T11:39:53.541Z,100725.25
2024-01-31T11:42:20.612Z,100728.81
2024-01-31T11:44:47.579Z,100736.56
2024-01-31T11:47:16.576Z,100737.44
2024-01-31T11:49:43.596Z,100737.91
2024-01-31T11:52:10.545Z,100728.53
2024-01-31T11:54:37.376Z,100723.47
2024-01-31T11:57:04.686Z,100724.50
2024-01-31T11:59:31.727Z,100730.94
2024-01-31T12:01:58.959Z,100730.56
2024-01-31T12:04:25.776Z,100730.28
2024-01-31T12:07:03.508Z,100727.78
2024-01-31T12:09:31.144Z,100725.91
2024-01-31T12:11:59.120Z,100724.84
2024-01-31T12:14:26.075Z,100729.91
2024-01-31T12:16:52.945Z,100727.00
2024-01-31T12:19:20.527Z,100726.16
2024-01-31T12:21:47.665Z,100731.63
2024-01-31T12:24:14.667Z,100734.09
2024-01-31T12:26:41.601Z,100730.19
2024-01-31T12:29:08.739Z,100733.50
2024-01-31T12:31:35.660Z,100725.59
2024-01-31T12:34:03.478Z,100729.75
2024-01-31T12:36:30.539Z,100724.06
2024-01-31T12:38:57.328Z,100738.31
2024-01-31T12:41:24.543Z,100736.84
2024-01-31T12:43:51.894Z,100732.88
2024-01-31T12:46:19.497Z,100726.88
2024-01-31T12:48:46.553Z,100725.88
2024-01-31T12:51:13.495Z,100728.47
2024-01-31T12:53:40.383Z,100721.16
2024-01-31T12:56:07.487Z,100725.97
2024-01-31T12:58:34.462Z,100716.31
2024-01-31T13:01:01.875Z,100720.47
2024-01-31T13:03:29.022Z,100718.53
2024-01-31T13:05:56.387Z,100725.50
2024-01-31T13:08:23.913Z,100714.56
2024-01-31T13:10:51.302Z,100716.84
2024-01-31T13:13:18.118Z,100720.78
2024-01-31T13:15:45.603Z,100716.84
2024-01-31T13:18:12.713Z,100718.84
2024-01-31T13:20:39.874Z,100712.97
2024-01-31T13:23:07.231Z,100712.22
2024-01-31T13:25:34.062Z,100707.09
2024-01-31T13:28:00.962Z,100713.28
2024-01-31T13:30:27.906Z,100712.69
2024-01-31T13:32:54.918Z,100708.53
2024-01-31T13:35:23.091Z,100710.41
2024-01-31T13:37:50.072Z,100721.22
2024-01-31T13:40:17.073Z,100704.88
2024-01-31T13:42:43.979Z,100709.31
2024-01-31T13:45:11.089Z,100714.78
2024-01-31T13:47:38.723Z,100708.88
2024-01-31T13:50:06.279Z,100714.16
2024-01-31T13:52:33.170Z,100713.44
2024-01-31T13:55:00.006Z,100706.59
2024-01-31T13:57:26.888Z,100714.59
2024-01-31T13:59:54.730Z,100712.09
2024-01-31T14:02:21.640Z,100703.56
2024-01-31T14:04:48.570Z,100697.56
2024-01-31T14:07:15.585Z,100700.28
2024-01-31T14:09:42.474Z,100702.09
2024-01-31T14:12:11.331Z,100704.88
2024-01-31T14:14:38.524Z,100698.91
2024-01-31T14:17:05.699Z,100689.38
2024-01-31T14:19:32.727Z,100692.13
2024-01-31T14:22:08.710Z,100693.13
2024-01-31T14:24:39.948Z,100687.94
2024-01-31T14:27:06.957Z,100688.91
2024-01-31T14:29:33.886Z,100681.09
2024-01-31T14:32:00.890Z,100678.53
2024-01-31T14:34:28.754Z,100679.44
2024-01-31T14:36:55.782Z,100676.88
2024-01-31T14:39:22.994Z,100673.44
2024-01-31T14:41:50.147Z,100676.09
2024-01-31T14:44:16.975Z,100682.19
2024-01-31T14:46:43.827Z,100675.22
2024-01-31T14:49:14.275Z,100680.44
2024-01-31T14:51:41.529Z,100673.47
2024-01-31T14:54:09.314Z,100674.31
2024-01-31T14:56:49.352Z,100675.19
2024-01-31T14:59:17.252Z,100667.31
2024-01-31T15:01:45.033Z,100655.97
2024-01-31T15:04:12.416Z,100656.81
2024-01-31T15:06:40.634Z,100655.09
2024-01-31T15:09:08.241Z,100662.94
2024-01-31T15:11:35.887Z,100657.72
2024-01-31T15:14:05.884Z,100656.81
2024-01-31T15:16:33.798Z,100662.94
2024-01-31T15:19:02.325Z,100657.72
2024-01-31T15:21:29.276Z,100660.31
2024-01-31T15:23:56.255Z,100651.59
2024-01-31T15:26:23.350Z,100651.59
2024-01-31T15:28:50.596Z,100649.88
2024-01-31T15:31:19.833Z,100651.59
2024-01-31T15:33:47.060Z,100653.38
2024-01-31T15:36:14.018Z,100654.22
2024-01-31T15:38:40.998Z,100649.00
2024-01-31T15:41:09.286Z,100653.34
2024-01-31T15:43:36.030Z,100658.53
2024-01-31T15:46:03.639Z,100647.25
2024-01-31T15:48:30.579Z,100654.22
2024-01-31T15:50:57.818Z,100647.25
2024-01-31T15:53:24.950Z,100649.84
2024-01-31T15:55:51.718Z,100645.50
2024-01-31T15:58:18.550Z,100646.34
2024-01-31T16:00:45.437Z,100649.88
2024-01-31T16:03:12.424Z,100644.63
2024-01-31T16:05:40.248Z,100646.34
2024-01-31T16:08:07.366Z,100644.63
2024-01-31T16:10:34.197Z,100647.25
2024-01-31T16:13:01.014Z,100648.97
2024-01-31T16:15:27.825Z,100648.97
2024-01-31T16:17:54.878Z,100647.16
2024-01-31T16:20:22.514Z,100642.78
2024-01-31T16:22:49.577Z,100653.22
2024-01-31T16:25:17.930Z,100661.97
2024-01-31T16:27:44.902Z,100656.72
2024-01-31T16:30:12.477Z,100654.94
2024-01-31T16:32:39.772Z,100658.38
2024-01-31T16:35:07.037Z,100659.25
2024-01-31T16:37:33.968Z,100650.56
2024-01-31T16:40:01.096Z,100647.06
2024-01-31T16:42:28.184Z,100647.09
2024-01-31T16:44:56.810Z,100645.38
2024-01-31T16:47:23.855Z,100642.72
2024-01-31T16:49:50.759Z,100640.09
2024-01-31T16:52:17.622Z,100647.94
2024-01-31T16:54:44.541Z,100640.09
2024-01-31T16:57:11.782Z,100634.00
2024-01-31T16:59:38.620Z,100635.75
2024-01-31T17:02:06.124Z,100638.38
2024-01-31T17:04:33.730Z,100641.81
2024-01-31T17:07:00.712Z,100642.66
2024-01-31T17:09:27.532Z,100638.28
2024-01-31T17:11:54.441Z,100641.75
2024-01-31T17:14:25.104Z,100634.78
2024-01-31T17:16:57.098Z,100632.25
2024-01-31T17:19:24.162Z,100642.63
2024-01-31T17:21:51.058Z,100643.44
2024-01-31T17:24:17.932Z,100640.84
2024-01-31T17:26:44.811Z,100640.84
2024-01-31T17:29:11.633Z,100639.97
2024-01-31T17:31:38.870Z,100632.13
2024-01-31T17:34:05.942Z,100632.19
2024-01-31T17:36:33.166Z,100624.34
2024-01-31T17:39:00.928Z,100635.66
2024-01-31T17:41:27.986Z,100628.66
2024-01-31T17:43:54.913Z,100624.31
2024-01-31T17:46:23.278Z,100626.09
2024-01-31T17:48:51.173Z,100621.75
2024-01-31T17:51:18.645Z,100615.66
2024-01-31T17:53:46.016Z,100606.06
2024-01-31T17:56:15.837Z,100600.88
2024-01-31T17:58:42.636Z,100604.31
2024-01-31T18:01:09.713Z,100606.09
2024-01-31T18:03:36.894Z,100599.13
2024-01-31T18:06:05.138Z,100598.28
2024-01-31T18:08:32.228Z,100593.94
2024-01-31T18:10:59.125Z,100594.78
2024-01-31T18:13:25.979Z,100586.97
2024-01-31T18:15:52.891Z,100583.50
2024-01-31T18:18:21.776Z,100593.06
2024-01-31T18:20:48.695Z,100593.09
2024-01-31T18:23:15.614Z,100592.28
2024-01-31T18:25:42.410Z,100588.75
2024-01-31T18:28:09.745Z,100581.78
2024-01-31T18:30:36.740Z,100581.78
2024-01-31T18:33:04.497Z,100577.41
2024-01-31T18:35:31.416Z,100580.06
2024-01-31T18:37:58.185Z,100579.19
2024-01-31T18:40:25.135Z,100585.28
2024-01-31T18:42:52.193Z,100581.78
2024-01-31T18:45:19.129Z,100578.31
2024-01-31T18:47:45.958Z,100579.22
2024-01-31T18:50:13.775Z,100591.38
2024-01-31T18:52:40.537Z,100584.41
2024-01-31T18:55:07.733Z,100576.53
2024-01-31T18:57:34.662Z,100572.19
2024-01-31T19:00:01.880Z,100574.81
2024-01-31T19:02:28.958Z,100573.97
2024-01-31T19:05:02.486Z,100578.31
2024-01-31T19:07:32.924Z,100576.59
2024-01-31T19:09:59.923Z,100567.88
2024-01-31T19:12:27.018Z,100567.03
2024-01-31T19:14:54.006Z,100562.69
2024-01-31T19:17:27.688Z,100558.31
2024-01-31T19:19:57.400Z,100551.31
2024-01-31T19:22:26.296Z,100546.13
2024-01-31T19:24:56.774Z,100541.75
2024-01-31T19:27:23.732Z,100541.78
2024-01-31T19:29:50.626Z,100547.00
2024-01-31T19:32:18.346Z,100545.22
2024-01-31T19:34:45.329Z,100550.47
2024-01-31T19:37:12.428Z,100553.09
2024-01-31T19:39:39.608Z,100548.75
2024-01-31T19:42:06.584Z,100552.22
2024-01-31T19:44:33.709Z,100551.38
2024-01-31T19:47:01.531Z,100540.00
2024-01-31T19:49:29.198Z,100545.25
2024-01-31T19:51:56.686Z,100538.19
2024-01-31T19:54:24.114Z,100527.69
2024-01-31T19:56:51.400Z,100527.59
2024-01-31T19:59:18.391Z,100522.34
2024-01-31T20:01:46.824Z,100522.34
2024-01-31T20:04:14.887Z,100514.41
2024-01-31T20:06:42.317Z,100518.69
2024-01-31T20:09:10.276Z,100505.56
2024-01-31T20:11:37.475Z,100509.81
2024-01-31T20:14:04.449Z,100506.28
2024-01-31T20:16:31.764Z,100503.66
2024-01-31T20:18:59.067Z,100503.69
2024-01-31T20:21:26.063Z,100495.78
2024-01-31T20:23:55.160Z,100495.69
2024-01-31T20:26:22.107Z,100484.28
2024-01-31T20:28:49.002Z,100485.09
2024-01-31T20:31:15.919Z,100473.72
2024-01-31T20:33:42.939Z,100478.84
2024-01-31T20:36:16.352Z,100470.03
2024-01-31T20:38:43.290Z,100471.72
2024-01-31T20:41:10.168Z,100468.13
2024-01-31T20:43:37.187Z,100470.75
2024-01-31T20:46:05.092Z,100458.38
2024-01-31T20:48:40.473Z,100454.00
2024-01-31T20:51:08.414Z,100458.31
2024-01-31T20:53:35.510Z,100459.97
2024-01-31T20:56:07.853Z,100457.31
2024-01-31T20:58:35.156Z,100447.66
2024-01-31T21:01:08.825Z,100455.47
2024-01-31T21:03:37.133Z,100444.13
2024-01-31T21:06:05.828Z,100445.84
2024-01-31T21:08:32.915Z,100445.13
2024-01-31T21:10:59.982Z,100445.88
2024-01-31T21:13:27.696Z,100446.63
2024-01-31T21:15:54.551Z,100437.06
2024-01-31T21:18:21.807Z,100437.09
2024-01-31T21:20:49.051Z,100428.34
2024-01-31T21:23:15.928Z,100424.84
2024-01-31T21:25:42.761Z,100419.56
2024-01-31T21:28:09.619Z,100422.25
2024-01-31T21:30:36.730Z,100413.63
2024-01-31T21:33:04.117Z,100415.66
2024-01-31T21:35:31.105Z,100416.81
2024-01-31T21:37:58.008Z,100414.38
2024-01-31T21:40:25.634Z,100412.72
2024-01-31T21:42:52.928Z,100405.88
2024-01-31T21:45:19.799Z,100408.56
2024-01-31T21:47:46.993Z,100407.78
2024-01-31T21:50:14.089Z,100406.97
2024-01-31T21:52:43.380Z,100416.69
2024-01-31T21:55:10.799Z,100402.75
2024-01-31T21:57:37.678Z,100405.44
2024-01-31T22:00:07.062Z,100408.19
2024-01-31T22:02:34.083Z,100420.41
2024-01-31T22:05:03.426Z,100422.19
2024-01-31T22:07:30.726Z,100429.19
2024-01-31T22:09:57.628Z,100433.56
2024-01-31T22:12:24.674Z,100436.22
2024-01-31T22:14:51.576Z,100439.75
2024-01-31T22:17:18.512Z,100434.50
2024-01-31T22:19:45.573Z,100431.03
2024-01-31T22:22:12.538Z,100436.28
2024-01-31T22:24:39.305Z,100434.50
2024-01-31T22:27:06.426Z,100428.44
2024-01-31T22:29:33.507Z,100432.75
2024-01-31T22:32:05.374Z,100430.19
2024-01-31T22:34:33.172Z,100429.28
2024-01-31T22:37:02.976Z,100428.44
2024-01-31T22:39:32.040Z,100422.34
2024-01-31T22:41:59.266Z,100424.06
2024-01-31T22:44:26.458Z,100422.34
2024-01-31T22:46:53.406Z,100413.59
2024-01-31T22:49:20.828Z,100410.13
2024-01-31T22:51:49.144Z,100405.75
2024-01-31T22:54:15.986Z,100406.66
2024-01-31T22:56:42.933Z,100404.03
2024-01-31T22:59:10.001Z,100405.81
2024-01-31T23:01:37.328Z,100401.41
2024-01-31T23:04:04.999Z,100410.97
2024-01-31T23:06:32.676Z,100403.13
2024-01-31T23:08:59.925Z,100399.66
2024-01-31T23:11:27.513Z,100395.25
2024-01-31T23:13:54.633Z,100393.56
2024-01-31T23:16:21.688Z,100397.06
2024-01-31T23:18:48.914Z,100395.28
2024-01-31T23:21:16.714Z,100400.53
2024-01-31T23:23:44.886Z,100396.19
2024-01-31T23:26:15.568Z,100397.06
2024-01-31T23:28:43.045Z,100395.28
2024-01-31T23:31:10.616Z,100393.56
2024-01-31T23:33:40.962Z,100391.81
2024-01-31T23:36:08.292Z,100392.66
2024-01-31T23:38:35.689Z,100387.41
2024-01-31T23:41:02.624Z,100379.56
2024-01-31T23:43:29.546Z,100376.03
2024-01-31T23:45:56.536Z,100375.16
2024-01-31T23:48:24.099Z,100387.38
2024-01-31T23:50:51.083Z,100380.38
2024-01-31T23:53:18.837Z,100386.41
2024-01-31T23:55:46.641Z,100378.47
2024-01-31T23:58:13.773Z,100380.22
